AIC103 VOHS-VABB
Flight info
| Callsign | AIC103 |
|---|---|
| Flight time | 1h 13m |
| Altitude | 32000 |
| Route | TAMIV5 APUSU W18 OPAKA EMRAK2A |
| Aircraft | A320/M-SDE3FGHIRWY/LB1 |
Departure
| Time | 2026-04-29 10:14 |
|---|---|
| Airport | Rajiv Gandhi International Airport (VOHS) |
Arrival
| Time | 2026-04-29 11:27 |
|---|---|
| Airport | Chhatrapati Shivaji Maharaj International Airport (VABB) |
| Time | Latitude | Longitude | Altitude | Speed | Heading |
|---|---|---|---|---|---|
| 2026-04-29 09:40 | 17.23420 | 78.43077 | 1980 ft | 0 kts | 360° |
| 2026-04-29 09:57 | 17.23397 | 78.43076 | 1981 ft | 4 kts | 8° |
| 2026-04-29 09:58 | 17.23370 | 78.43070 | 1980 ft | 4 kts | 21° |
| 2026-04-29 09:58 | 17.23347 | 78.43057 | 1980 ft | 4 kts | 41° |
| 2026-04-29 09:58 | 17.23332 | 78.43036 | 1981 ft | 4 kts | 83° |
| 2026-04-29 09:58 | 17.23332 | 78.43040 | 1981 ft | 4 kts | 89° |
| 2026-04-29 09:59 | 17.23333 | 78.43068 | 1980 ft | 2 kts | 89° |
| 2026-04-29 09:59 | 17.23333 | 78.43070 | 1980 ft | 0 kts | 89° |
| 2026-04-29 10:04 | 17.23333 | 78.43074 | 1982 ft | 3 kts | 89° |
| 2026-04-29 10:04 | 17.23333 | 78.43114 | 1979 ft | 7 kts | 89° |
| 2026-04-29 10:04 | 17.23333 | 78.43129 | 1979 ft | 1 kts | 90° |
| 2026-04-29 10:04 | 17.23300 | 78.43156 | 1979 ft | 13 kts | 165° |
| 2026-04-29 10:05 | 17.23246 | 78.43226 | 1979 ft | 14 kts | 89° |
| 2026-04-29 10:05 | 17.23249 | 78.43341 | 1979 ft | 17 kts | 90° |
| 2026-04-29 10:05 | 17.23248 | 78.43429 | 1979 ft | 22 kts | 89° |
| 2026-04-29 10:05 | 17.23250 | 78.43510 | 1979 ft | 23 kts | 89° |
| 2026-04-29 10:06 | 17.23253 | 78.43680 | 1980 ft | 24 kts | 89° |
| 2026-04-29 10:06 | 17.23255 | 78.43796 | 1980 ft | 25 kts | 89° |
| 2026-04-29 10:06 | 17.23257 | 78.43925 | 1980 ft | 25 kts | 89° |
| 2026-04-29 10:06 | 17.23260 | 78.44115 | 1981 ft | 27 kts | 90° |
| 2026-04-29 10:07 | 17.23263 | 78.44312 | 1981 ft | 28 kts | 90° |
| 2026-04-29 10:07 | 17.23193 | 78.44368 | 1982 ft | 14 kts | 175° |
| 2026-04-29 10:07 | 17.23105 | 78.44409 | 1981 ft | 15 kts | 102° |
| 2026-04-29 10:07 | 17.23103 | 78.44520 | 1981 ft | 24 kts | 89° |
| 2026-04-29 10:08 | 17.23104 | 78.44589 | 1981 ft | 24 kts | 89° |
| 2026-04-29 10:08 | 17.23107 | 78.44774 | 1979 ft | 26 kts | 88° |
| 2026-04-29 10:08 | 17.23090 | 78.44921 | 1980 ft | 13 kts | 148° |
| 2026-04-29 10:09 | 17.23049 | 78.44927 | 1981 ft | 0 kts | 179° |
| 2026-04-29 10:09 | 17.23047 | 78.44929 | 1981 ft | 1 kts | 155° |
| 2026-04-29 10:10 | 17.23057 | 78.44936 | 1983 ft | 3 kts | 8° |
| 2026-04-29 10:10 | 17.23110 | 78.44991 | 1979 ft | 23 kts | 81° |
| 2026-04-29 10:10 | 17.23117 | 78.45234 | 1981 ft | 27 kts | 88° |
| 2026-04-29 10:10 | 17.23025 | 78.45318 | 1979 ft | 0 kts | 180° |
| 2026-04-29 10:11 | 17.23024 | 78.45318 | 1979 ft | 0 kts | 180° |
| 2026-04-29 10:11 | 17.23019 | 78.45318 | 1981 ft | 3 kts | 180° |
| 2026-04-29 10:11 | 17.22993 | 78.45310 | 1979 ft | 3 kts | 223° |
| 2026-04-29 10:11 | 17.22974 | 78.45293 | 1981 ft | 6 kts | 216° |
| 2026-04-29 10:12 | 17.22913 | 78.45249 | 1982 ft | 11 kts | 235° |
| 2026-04-29 10:12 | 17.22909 | 78.45192 | 1981 ft | 0 kts | 269° |
| 2026-04-29 10:13 | 17.22909 | 78.45186 | 1981 ft | 6 kts | 269° |
| 2026-04-29 10:13 | 17.22905 | 78.44968 | 1981 ft | 61 kts | 268° |
| 2026-04-29 10:13 | 17.22896 | 78.44319 | 1983 ft | 114 kts | 270° |
| 2026-04-29 10:14 | 17.22884 | 78.43341 | 1985 ft | 153 kts | 269° |
| 2026-04-29 10:14 | 17.22846 | 78.42163 | 2356 ft | 161 kts | 267° |
| 2026-04-29 10:14 | 17.22818 | 78.41005 | 2926 ft | 157 kts | 263° |
| 2026-04-29 10:14 | 17.22788 | 78.39851 | 3429 ft | 160 kts | 267° |
| 2026-04-29 10:15 | 17.22800 | 78.38634 | 3789 ft | 178 kts | 271° |
| 2026-04-29 10:15 | 17.22902 | 78.37283 | 4134 ft | 192 kts | 274° |
| 2026-04-29 10:15 | 17.23022 | 78.35853 | 4527 ft | 202 kts | 271° |
| 2026-04-29 10:15 | 17.23085 | 78.34359 | 4782 ft | 211 kts | 279° |
| 2026-04-29 10:16 | 17.23626 | 78.32936 | 5295 ft | 205 kts | 295° |
| 2026-04-29 10:16 | 17.24037 | 78.32068 | 5878 ft | 191 kts | 295° |
| 2026-04-29 10:16 | 17.24804 | 78.30478 | 6620 ft | 182 kts | 296° |
| 2026-04-29 10:16 | 17.25385 | 78.29282 | 6916 ft | 190 kts | 292° |
| 2026-04-29 10:17 | 17.25896 | 78.27945 | 7044 ft | 207 kts | 290° |
| 2026-04-29 10:17 | 17.26419 | 78.26472 | 7284 ft | 222 kts | 290° |
| 2026-04-29 10:17 | 17.26976 | 78.24937 | 7736 ft | 229 kts | 291° |
| 2026-04-29 10:17 | 17.27563 | 78.23376 | 8329 ft | 231 kts | 292° |
| 2026-04-29 10:18 | 17.28166 | 78.21816 | 8930 ft | 233 kts | 293° |
| 2026-04-29 10:18 | 17.28781 | 78.20251 | 9582 ft | 232 kts | 294° |
| 2026-04-29 10:18 | 17.29403 | 78.18690 | 10126 ft | 233 kts | 294° |
| 2026-04-29 10:18 | 17.30040 | 78.17105 | 10508 ft | 245 kts | 294° |
| 2026-04-29 10:19 | 17.30736 | 78.15394 | 10738 ft | 266 kts | 294° |
| 2026-04-29 10:19 | 17.31485 | 78.13564 | 10935 ft | 288 kts | 294° |
| 2026-04-29 10:19 | 17.32287 | 78.11600 | 11417 ft | 296 kts | 295° |
| 2026-04-29 10:19 | 17.33103 | 78.09608 | 12040 ft | 300 kts | 294° |
| 2026-04-29 10:20 | 17.33931 | 78.07589 | 12675 ft | 304 kts | 294° |
| 2026-04-29 10:20 | 17.34764 | 78.05555 | 13341 ft | 305 kts | 294° |
| 2026-04-29 10:20 | 17.35601 | 78.03498 | 13977 ft | 309 kts | 294° |
| 2026-04-29 10:20 | 17.36440 | 78.01420 | 14521 ft | 312 kts | 294° |
| 2026-04-29 10:21 | 17.37283 | 77.99329 | 15070 ft | 313 kts | 295° |
| 2026-04-29 10:21 | 17.38133 | 77.97231 | 15575 ft | 316 kts | 295° |
| 2026-04-29 10:21 | 17.39006 | 77.95116 | 16123 ft | 316 kts | 294° |
| 2026-04-29 10:21 | 17.39879 | 77.92972 | 16633 ft | 320 kts | 293° |
| 2026-04-29 10:22 | 17.40745 | 77.90816 | 17066 ft | 325 kts | 294° |
| 2026-04-29 10:22 | 17.41637 | 77.88622 | 17556 ft | 329 kts | 294° |
| 2026-04-29 10:22 | 17.42538 | 77.86409 | 18103 ft | 331 kts | 294° |
| 2026-04-29 10:22 | 17.43444 | 77.84175 | 18564 ft | 333 kts | 294° |
| 2026-04-29 10:23 | 17.44353 | 77.81937 | 19022 ft | 335 kts | 294° |
| 2026-04-29 10:23 | 17.45267 | 77.79680 | 19478 ft | 338 kts | 293° |
| 2026-04-29 10:23 | 17.46183 | 77.77413 | 19979 ft | 339 kts | 293° |
| 2026-04-29 10:23 | 17.47105 | 77.75133 | 20464 ft | 340 kts | 293° |
| 2026-04-29 10:24 | 17.48030 | 77.72847 | 20956 ft | 341 kts | 293° |
| 2026-04-29 10:24 | 17.48958 | 77.70558 | 21444 ft | 342 kts | 293° |
| 2026-04-29 10:24 | 17.49893 | 77.68257 | 21932 ft | 344 kts | 293° |
| 2026-04-29 10:24 | 17.50825 | 77.65952 | 22391 ft | 344 kts | 293° |
| 2026-04-29 10:25 | 17.51761 | 77.63638 | 22861 ft | 346 kts | 293° |
| 2026-04-29 10:25 | 17.52703 | 77.61310 | 23346 ft | 348 kts | 293° |
| 2026-04-29 10:25 | 17.53650 | 77.58971 | 23658 ft | 353 kts | 293° |
| 2026-04-29 10:25 | 17.54624 | 77.56564 | 23768 ft | 365 kts | 293° |
| 2026-04-29 10:26 | 17.55633 | 77.54074 | 23879 ft | 376 kts | 293° |
| 2026-04-29 10:26 | 17.56667 | 77.51520 | 23992 ft | 386 kts | 293° |
| 2026-04-29 10:26 | 17.57713 | 77.48936 | 24223 ft | 392 kts | 293° |
| 2026-04-29 10:26 | 17.58779 | 77.46299 | 24566 ft | 394 kts | 293° |
| 2026-04-29 10:27 | 17.60918 | 77.40993 | 25314 ft | 396 kts | 292° |
| 2026-04-29 10:27 | 17.61992 | 77.38325 | 25690 ft | 397 kts | 292° |
| 2026-04-29 10:27 | 17.63065 | 77.35654 | 26065 ft | 398 kts | 292° |
| 2026-04-29 10:28 | 17.64141 | 77.32972 | 26439 ft | 400 kts | 292° |
| 2026-04-29 10:28 | 17.65221 | 77.30283 | 26827 ft | 401 kts | 292° |
| 2026-04-29 10:28 | 17.66304 | 77.27585 | 27200 ft | 402 kts | 292° |
| 2026-04-29 10:28 | 17.67393 | 77.24878 | 27586 ft | 403 kts | 292° |
| 2026-04-29 10:29 | 17.68484 | 77.22162 | 27861 ft | 406 kts | 292° |
| 2026-04-29 10:29 | 17.69587 | 77.19412 | 28123 ft | 410 kts | 292° |
| 2026-04-29 10:29 | 17.70698 | 77.16647 | 28456 ft | 412 kts | 292° |
| 2026-04-29 10:29 | 17.71815 | 77.13870 | 28842 ft | 413 kts | 292° |
| 2026-04-29 10:30 | 17.72931 | 77.11088 | 29220 ft | 415 kts | 292° |
| 2026-04-29 10:30 | 17.74049 | 77.08295 | 29574 ft | 416 kts | 292° |
| 2026-04-29 10:30 | 17.75169 | 77.05488 | 29920 ft | 417 kts | 292° |
| 2026-04-29 10:30 | 17.76292 | 77.02678 | 30206 ft | 419 kts | 292° |
| 2026-04-29 10:31 | 17.77420 | 76.99861 | 30582 ft | 418 kts | 292° |
| 2026-04-29 10:31 | 17.78548 | 76.97055 | 30945 ft | 417 kts | 292° |
| 2026-04-29 10:31 | 17.79674 | 76.94245 | 31326 ft | 417 kts | 292° |
| 2026-04-29 10:31 | 17.80795 | 76.91442 | 31681 ft | 417 kts | 292° |
| 2026-04-29 10:32 | 17.81917 | 76.88637 | 31821 ft | 415 kts | 292° |
| 2026-04-29 10:32 | 17.83015 | 76.85888 | 31830 ft | 402 kts | 292° |
| 2026-04-29 10:32 | 17.84088 | 76.83200 | 31836 ft | 398 kts | 292° |
| 2026-04-29 10:33 | 17.86214 | 76.77864 | 31838 ft | 396 kts | 292° |
| 2026-04-29 10:33 | 17.88337 | 76.72537 | 31842 ft | 395 kts | 292° |
| 2026-04-29 10:34 | 17.90455 | 76.67206 | 31836 ft | 395 kts | 292° |
| 2026-04-29 10:34 | 17.92573 | 76.61876 | 31842 ft | 395 kts | 292° |
| 2026-04-29 10:35 | 17.94720 | 76.56472 | 31839 ft | 410 kts | 292° |
| 2026-04-29 10:35 | 17.96964 | 76.50820 | 31853 ft | 428 kts | 292° |
| 2026-04-29 10:36 | 17.99607 | 76.45110 | 31845 ft | 442 kts | 305° |
| 2026-04-29 10:36 | 18.01651 | 76.42683 | 31846 ft | 446 kts | 316° |
| 2026-04-29 10:36 | 18.04168 | 76.40765 | 31841 ft | 451 kts | 328° |
| 2026-04-29 10:37 | 18.09794 | 76.37778 | 31844 ft | 453 kts | 330° |
| 2026-04-29 10:37 | 18.14477 | 76.35319 | 31849 ft | 453 kts | 330° |
| 2026-04-29 10:38 | 18.20107 | 76.32349 | 31847 ft | 453 kts | 330° |
| 2026-04-29 10:38 | 18.25737 | 76.29373 | 31855 ft | 453 kts | 330° |
| 2026-04-29 10:39 | 18.31359 | 76.26401 | 31850 ft | 453 kts | 330° |
| 2026-04-29 10:39 | 18.36990 | 76.23427 | 31849 ft | 453 kts | 330° |
| 2026-04-29 10:40 | 18.42630 | 76.20448 | 31845 ft | 453 kts | 330° |
| 2026-04-29 10:40 | 18.48263 | 76.17459 | 31853 ft | 453 kts | 330° |
| 2026-04-29 10:41 | 18.53889 | 76.14472 | 31854 ft | 453 kts | 330° |
| 2026-04-29 10:41 | 18.59472 | 76.11508 | 31847 ft | 452 kts | 330° |
| 2026-04-29 10:42 | 18.65091 | 76.08519 | 31855 ft | 453 kts | 330° |
| 2026-04-29 10:42 | 18.70723 | 76.05531 | 31856 ft | 453 kts | 330° |
| 2026-04-29 10:43 | 18.76347 | 76.02546 | 31845 ft | 452 kts | 330° |
| 2026-04-29 10:43 | 18.81970 | 75.99559 | 31842 ft | 452 kts | 330° |
| 2026-04-29 10:44 | 18.87589 | 75.96563 | 31831 ft | 452 kts | 330° |
| 2026-04-29 10:44 | 18.93206 | 75.93567 | 31846 ft | 452 kts | 331° |
| 2026-04-29 10:45 | 18.98795 | 75.90595 | 31835 ft | 453 kts | 331° |
| 2026-04-29 10:45 | 19.04411 | 75.87598 | 31828 ft | 452 kts | 331° |
| 2026-04-29 10:46 | 19.10025 | 75.84594 | 31835 ft | 452 kts | 331° |
| 2026-04-29 10:46 | 19.15640 | 75.81597 | 31815 ft | 452 kts | 331° |
| 2026-04-29 10:47 | 19.21250 | 75.78594 | 31815 ft | 452 kts | 331° |
| 2026-04-29 10:47 | 19.26863 | 75.75588 | 31819 ft | 452 kts | 331° |
| 2026-04-29 10:48 | 19.32468 | 75.72592 | 31820 ft | 451 kts | 331° |
| 2026-04-29 10:48 | 19.38068 | 75.69586 | 31817 ft | 451 kts | 331° |
| 2026-04-29 10:49 | 19.43663 | 75.66576 | 31808 ft | 451 kts | 330° |
| 2026-04-29 10:49 | 19.46246 | 75.64727 | 31811 ft | 448 kts | 317° |
| 2026-04-29 10:49 | 19.48322 | 75.62288 | 31810 ft | 446 kts | 304° |
| 2026-04-29 10:49 | 19.49791 | 75.59402 | 31811 ft | 447 kts | 291° |
| 2026-04-29 10:50 | 19.50575 | 75.56219 | 31793 ft | 448 kts | 279° |
| 2026-04-29 10:50 | 19.51252 | 75.49637 | 31788 ft | 450 kts | 278° |
| 2026-04-29 10:51 | 19.51915 | 75.43034 | 31798 ft | 451 kts | 278° |
| 2026-04-29 10:51 | 19.52586 | 75.36407 | 31789 ft | 452 kts | 278° |
| 2026-04-29 10:52 | 19.53247 | 75.29810 | 31802 ft | 453 kts | 278° |
| 2026-04-29 10:52 | 19.53910 | 75.23175 | 31798 ft | 452 kts | 278° |
| 2026-04-29 10:53 | 19.54568 | 75.16540 | 31811 ft | 453 kts | 278° |
| 2026-04-29 10:53 | 19.55221 | 75.09896 | 31800 ft | 454 kts | 278° |
| 2026-04-29 10:54 | 19.55882 | 75.03238 | 31792 ft | 453 kts | 278° |
| 2026-04-29 10:54 | 19.56541 | 74.96592 | 31772 ft | 452 kts | 278° |
| 2026-04-29 10:54 | 19.56865 | 74.93295 | 31284 ft | 447 kts | 278° |
| 2026-04-29 10:55 | 19.57185 | 74.90033 | 30780 ft | 442 kts | 278° |
| 2026-04-29 10:55 | 19.57497 | 74.86816 | 30307 ft | 436 kts | 278° |
| 2026-04-29 10:55 | 19.57806 | 74.83637 | 29840 ft | 430 kts | 277° |
| 2026-04-29 10:55 | 19.58111 | 74.80486 | 29195 ft | 427 kts | 277° |
| 2026-04-29 10:56 | 19.58414 | 74.77358 | 28536 ft | 425 kts | 277° |
| 2026-04-29 10:56 | 19.58716 | 74.74249 | 27865 ft | 423 kts | 277° |
| 2026-04-29 10:56 | 19.59016 | 74.71156 | 27191 ft | 421 kts | 277° |
| 2026-04-29 10:56 | 19.59315 | 74.68073 | 26572 ft | 419 kts | 277° |
| 2026-04-29 10:57 | 19.59613 | 74.64999 | 25946 ft | 418 kts | 277° |
| 2026-04-29 10:57 | 19.59911 | 74.61940 | 25341 ft | 416 kts | 277° |
| 2026-04-29 10:57 | 19.60204 | 74.58913 | 24949 ft | 408 kts | 277° |
| 2026-04-29 10:57 | 19.60394 | 74.55957 | 24740 ft | 397 kts | 270° |
| 2026-04-29 10:58 | 19.60069 | 74.53072 | 24445 ft | 391 kts | 258° |
| 2026-04-29 10:58 | 19.59335 | 74.50314 | 24153 ft | 386 kts | 256° |
| 2026-04-29 10:58 | 19.58588 | 74.47608 | 23871 ft | 379 kts | 256° |
| 2026-04-29 10:58 | 19.57859 | 74.44943 | 23586 ft | 373 kts | 256° |
| 2026-04-29 10:59 | 19.57148 | 74.42323 | 23320 ft | 366 kts | 256° |
| 2026-04-29 10:59 | 19.56453 | 74.39748 | 22981 ft | 361 kts | 257° |
| 2026-04-29 10:59 | 19.55761 | 74.37206 | 22645 ft | 356 kts | 256° |
| 2026-04-29 10:59 | 19.55074 | 74.34687 | 22314 ft | 355 kts | 256° |
| 2026-04-29 11:00 | 19.54391 | 74.32181 | 21988 ft | 354 kts | 256° |
| 2026-04-29 11:00 | 19.53709 | 74.29676 | 21655 ft | 352 kts | 257° |
| 2026-04-29 11:00 | 19.53032 | 74.27197 | 21330 ft | 350 kts | 257° |
| 2026-04-29 11:00 | 19.52358 | 74.24736 | 21014 ft | 347 kts | 257° |
| 2026-04-29 11:01 | 19.51687 | 74.22287 | 20714 ft | 346 kts | 257° |
| 2026-04-29 11:01 | 19.51023 | 74.19844 | 20405 ft | 344 kts | 256° |
| 2026-04-29 11:01 | 19.50372 | 74.17435 | 20109 ft | 344 kts | 257° |
| 2026-04-29 11:01 | 19.49714 | 74.15014 | 19808 ft | 341 kts | 257° |
| 2026-04-29 11:02 | 19.49054 | 74.12606 | 19523 ft | 339 kts | 257° |
| 2026-04-29 11:02 | 19.48395 | 74.10208 | 19224 ft | 338 kts | 256° |
| 2026-04-29 11:02 | 19.47739 | 74.07819 | 18927 ft | 337 kts | 256° |
| 2026-04-29 11:02 | 19.47082 | 74.05436 | 18647 ft | 335 kts | 256° |
| 2026-04-29 11:03 | 19.46430 | 74.03065 | 18382 ft | 334 kts | 257° |
| 2026-04-29 11:03 | 19.45783 | 74.00709 | 18083 ft | 333 kts | 257° |
| 2026-04-29 11:03 | 19.45141 | 73.98364 | 17746 ft | 330 kts | 257° |
| 2026-04-29 11:03 | 19.44502 | 73.96028 | 17419 ft | 329 kts | 257° |
| 2026-04-29 11:04 | 19.43866 | 73.93705 | 17089 ft | 328 kts | 256° |
| 2026-04-29 11:04 | 19.43231 | 73.91398 | 16767 ft | 324 kts | 256° |
| 2026-04-29 11:04 | 19.42602 | 73.89114 | 16434 ft | 320 kts | 256° |
| 2026-04-29 11:04 | 19.41901 | 73.86885 | 16136 ft | 319 kts | 248° |
| 2026-04-29 11:05 | 19.40872 | 73.84817 | 15909 ft | 316 kts | 245° |
| 2026-04-29 11:05 | 19.39821 | 73.82778 | 15752 ft | 316 kts | 245° |
| 2026-04-29 11:05 | 19.38772 | 73.80736 | 15415 ft | 315 kts | 244° |
| 2026-04-29 11:05 | 19.37725 | 73.78699 | 15090 ft | 314 kts | 243° |
| 2026-04-29 11:06 | 19.36681 | 73.76672 | 14768 ft | 312 kts | 244° |
| 2026-04-29 11:06 | 19.35645 | 73.74662 | 14443 ft | 310 kts | 244° |
| 2026-04-29 11:06 | 19.34614 | 73.72665 | 14128 ft | 308 kts | 244° |
| 2026-04-29 11:06 | 19.33587 | 73.70678 | 13812 ft | 307 kts | 244° |
| 2026-04-29 11:07 | 19.32566 | 73.68708 | 13468 ft | 304 kts | 243° |
| 2026-04-29 11:07 | 19.31555 | 73.66747 | 13118 ft | 303 kts | 244° |
| 2026-04-29 11:07 | 19.30547 | 73.64791 | 12752 ft | 302 kts | 243° |
| 2026-04-29 11:07 | 19.30145 | 73.64010 | 12615 ft | 301 kts | 243° |
| 2026-04-29 11:08 | 19.29132 | 73.62074 | 12279 ft | 299 kts | 243° |
| 2026-04-29 11:08 | 19.28682 | 73.61206 | 12127 ft | 298 kts | 243° |
| 2026-04-29 11:08 | 19.27714 | 73.59323 | 11788 ft | 297 kts | 243° |
| 2026-04-29 11:08 | 19.26731 | 73.57405 | 11461 ft | 295 kts | 242° |
| 2026-04-29 11:09 | 19.25751 | 73.55501 | 11118 ft | 295 kts | 243° |
| 2026-04-29 11:09 | 19.24764 | 73.53596 | 10791 ft | 295 kts | 243° |
| 2026-04-29 11:09 | 19.23784 | 73.51696 | 10398 ft | 294 kts | 243° |
| 2026-04-29 11:09 | 19.22804 | 73.49785 | 10029 ft | 294 kts | 242° |
| 2026-04-29 11:10 | 19.21838 | 73.47899 | 9714 ft | 288 kts | 243° |
| 2026-04-29 11:10 | 19.20987 | 73.45985 | 9348 ft | 288 kts | 247° |
| 2026-04-29 11:10 | 19.20232 | 73.44028 | 8974 ft | 287 kts | 250° |
| 2026-04-29 11:10 | 19.19524 | 73.42059 | 8610 ft | 285 kts | 251° |
| 2026-04-29 11:11 | 19.18829 | 73.40095 | 8256 ft | 284 kts | 251° |
| 2026-04-29 11:11 | 19.18136 | 73.38148 | 7891 ft | 282 kts | 251° |
| 2026-04-29 11:11 | 19.17439 | 73.36202 | 7526 ft | 283 kts | 251° |
| 2026-04-29 11:11 | 19.16738 | 73.34256 | 7178 ft | 283 kts | 251° |
| 2026-04-29 11:12 | 19.16032 | 73.32317 | 6847 ft | 282 kts | 251° |
| 2026-04-29 11:12 | 19.15329 | 73.30381 | 6502 ft | 282 kts | 251° |
| 2026-04-29 11:12 | 19.14627 | 73.28439 | 6146 ft | 282 kts | 252° |
| 2026-04-29 11:12 | 19.13925 | 73.26500 | 5851 ft | 281 kts | 251° |
| 2026-04-29 11:13 | 19.13238 | 73.24621 | 5806 ft | 268 kts | 252° |
| 2026-04-29 11:13 | 19.12575 | 73.22830 | 5804 ft | 253 kts | 251° |
| 2026-04-29 11:13 | 19.11939 | 73.21117 | 5800 ft | 249 kts | 251° |
| 2026-04-29 11:13 | 19.11330 | 73.19468 | 5905 ft | 232 kts | 252° |
| 2026-04-29 11:14 | 19.10759 | 73.17912 | 5971 ft | 226 kts | 252° |
| 2026-04-29 11:14 | 19.10187 | 73.16352 | 5973 ft | 227 kts | 252° |
| 2026-04-29 11:14 | 19.09620 | 73.14795 | 5656 ft | 228 kts | 251° |
| 2026-04-29 11:14 | 19.09124 | 73.13213 | 5330 ft | 224 kts | 266° |
| 2026-04-29 11:15 | 19.09119 | 73.11590 | 5006 ft | 220 kts | 273° |
| 2026-04-29 11:15 | 19.09131 | 73.10022 | 4697 ft | 222 kts | 272° |
| 2026-04-29 11:15 | 19.09127 | 73.08385 | 4359 ft | 225 kts | 273° |
| 2026-04-29 11:15 | 19.09116 | 73.06725 | 4022 ft | 226 kts | 272° |
| 2026-04-29 11:16 | 19.09106 | 73.05061 | 3690 ft | 227 kts | 274° |
| 2026-04-29 11:16 | 19.09100 | 73.03406 | 3356 ft | 225 kts | 271° |
| 2026-04-29 11:16 | 19.09075 | 73.01745 | 3030 ft | 227 kts | 271° |
| 2026-04-29 11:16 | 19.09050 | 73.00104 | 2904 ft | 217 kts | 271° |
| 2026-04-29 11:17 | 19.09029 | 72.98561 | 2899 ft | 202 kts | 271° |
| 2026-04-29 11:17 | 19.09009 | 72.97137 | 2918 ft | 187 kts | 270° |
| 2026-04-29 11:17 | 19.08992 | 72.95842 | 2902 ft | 164 kts | 271° |
| 2026-04-29 11:17 | 19.08977 | 72.94677 | 2907 ft | 154 kts | 271° |
| 2026-04-29 11:18 | 19.08963 | 72.93558 | 2906 ft | 151 kts | 271° |
| 2026-04-29 11:18 | 19.08948 | 72.92454 | 2907 ft | 150 kts | 270° |
| 2026-04-29 11:18 | 19.08934 | 72.91281 | 2919 ft | 169 kts | 271° |
| 2026-04-29 11:18 | 19.09290 | 72.90066 | 2912 ft | 181 kts | 308° |
| 2026-04-29 11:19 | 19.10360 | 72.89370 | 2908 ft | 188 kts | 347° |
| 2026-04-29 11:19 | 19.11600 | 72.89554 | 2920 ft | 192 kts | 25° |
| 2026-04-29 11:19 | 19.12580 | 72.90569 | 2922 ft | 203 kts | 53° |
| 2026-04-29 11:19 | 19.13294 | 72.91818 | 2931 ft | 202 kts | 59° |
| 2026-04-29 11:20 | 19.13676 | 72.93273 | 2910 ft | 206 kts | 82° |
| 2026-04-29 11:20 | 19.13809 | 72.94769 | 2921 ft | 206 kts | 84° |
| 2026-04-29 11:20 | 19.13869 | 72.95777 | 2893 ft | 209 kts | 84° |
| 2026-04-29 11:20 | 19.13935 | 72.97314 | 2899 ft | 211 kts | 85° |
| 2026-04-29 11:21 | 19.14013 | 72.99250 | 2902 ft | 212 kts | 85° |
| 2026-04-29 11:21 | 19.14074 | 73.00803 | 2901 ft | 210 kts | 84° |
| 2026-04-29 11:21 | 19.14141 | 73.02345 | 2905 ft | 211 kts | 85° |
| 2026-04-29 11:21 | 19.14259 | 73.03879 | 2903 ft | 209 kts | 81° |
| 2026-04-29 11:22 | 19.14201 | 73.05405 | 2893 ft | 209 kts | 108° |
| 2026-04-29 11:22 | 19.13358 | 73.06643 | 2899 ft | 210 kts | 146° |
| 2026-04-29 11:22 | 19.12477 | 73.07061 | 2901 ft | 204 kts | 172° |
| 2026-04-29 11:22 | 19.11121 | 73.06896 | 2903 ft | 196 kts | 206° |
| 2026-04-29 11:23 | 19.10041 | 73.06036 | 2909 ft | 194 kts | 235° |
| 2026-04-29 11:23 | 19.09376 | 73.04897 | 3036 ft | 188 kts | 249° |
| 2026-04-29 11:23 | 19.09096 | 73.03613 | 2796 ft | 187 kts | 269° |
| 2026-04-29 11:23 | 19.09074 | 73.02260 | 2712 ft | 179 kts | 269° |
| 2026-04-29 11:24 | 19.09060 | 73.00963 | 2490 ft | 174 kts | 269° |
| 2026-04-29 11:24 | 19.09045 | 72.99703 | 2190 ft | 168 kts | 270° |
| 2026-04-29 11:24 | 19.09029 | 72.98499 | 1989 ft | 159 kts | 270° |
| 2026-04-29 11:24 | 19.09014 | 72.97378 | 1787 ft | 146 kts | 270° |
| 2026-04-29 11:25 | 19.09000 | 72.96328 | 1610 ft | 140 kts | 267° |
| 2026-04-29 11:25 | 19.08987 | 72.95309 | 1437 ft | 138 kts | 269° |
| 2026-04-29 11:25 | 19.08974 | 72.94327 | 1300 ft | 138 kts | 269° |
| 2026-04-29 11:25 | 19.08960 | 72.93309 | 1116 ft | 138 kts | 269° |
| 2026-04-29 11:26 | 19.08933 | 72.91300 | 752 ft | 138 kts | 270° |
| 2026-04-29 11:26 | 19.08915 | 72.90291 | 581 ft | 137 kts | 269° |
| 2026-04-29 11:26 | 19.08896 | 72.89286 | 398 ft | 137 kts | 269° |
| 2026-04-29 11:27 | 19.08892 | 72.88278 | 212 ft | 137 kts | 270° |
| 2026-04-29 11:27 | 19.08877 | 72.87280 | 72 ft | 134 kts | 269° |
| 2026-04-29 11:27 | 19.08866 | 72.86423 | 48 ft | 94 kts | 269° |
| 2026-04-29 11:27 | 19.08858 | 72.85956 | 48 ft | 41 kts | 269° |
| 2026-04-29 11:28 | 19.08881 | 72.85662 | 48 ft | 40 kts | 286° |
| 2026-04-29 11:28 | 19.08956 | 72.85492 | 49 ft | 9 kts | 313° |